sensor_id;sensor_type;location;lat;lon;timestamp;P1;durP1;ratioP1;P2;durP2;ratioP2
51184;SDS011;37248;59.350;18.050;2023-04-09T00:00:13;1156.15;;;999.90;;
51184;SDS011;37248;59.350;18.050;2023-04-09T00:02:38;1160.60;;;999.90;;
51184;SDS011;37248;59.350;18.050;2023-04-09T00:05:04;1139.45;;;999.90;;
51184;SDS011;37248;59.350;18.050;2023-04-09T00:07:29;1145.00;;;999.90;;
51184;SDS011;37248;59.350;18.050;2023-04-09T00:09:54;1163.20;;;999.90;;
51184;SDS011;37248;59.350;18.050;2023-04-09T00:12:20;1092.55;;;991.33;;
51184;SDS011;37248;59.350;18.050;2023-04-09T00:14:45;1123.90;;;999.90;;
51184;SDS011;37248;59.350;18.050;2023-04-09T00:17:10;1104.80;;;999.90;;
51184;SDS011;37248;59.350;18.050;2023-04-09T00:19:36;1116.70;;;999.90;;
51184;SDS011;37248;59.350;18.050;2023-04-09T00:22:01;1121.67;;;999.90;;
51184;SDS011;37248;59.350;18.050;2023-04-09T00:24:26;1098.97;;;996.80;;
51184;SDS011;37248;59.350;18.050;2023-04-09T00:26:51;1100.50;;;998.73;;
51184;SDS011;37248;59.350;18.050;2023-04-09T00:29:17;1089.13;;;987.80;;
51184;SDS011;37248;59.350;18.050;2023-04-09T00:31:42;1097.20;;;997.60;;
51184;SDS011;37248;59.350;18.050;2023-04-09T00:34:08;1098.97;;;996.33;;
51184;SDS011;37248;59.350;18.050;2023-04-09T00:36:33;1071.97;;;974.97;;
51184;SDS011;37248;59.350;18.050;2023-04-09T00:38:58;1080.27;;;982.60;;
51184;SDS011;37248;59.350;18.050;2023-04-09T00:41:23;1070.10;;;973.53;;
51184;SDS011;37248;59.350;18.050;2023-04-09T00:43:49;1077.20;;;979.80;;
51184;SDS011;37248;59.350;18.050;2023-04-09T00:46:14;1081.75;;;983.35;;
51184;SDS011;37248;59.350;18.050;2023-04-09T00:48:40;1079.85;;;983.85;;
51184;SDS011;37248;59.350;18.050;2023-04-09T00:51:06;1085.57;;;987.53;;
51184;SDS011;37248;59.350;18.050;2023-04-09T00:53:32;1099.07;;;999.00;;
51184;SDS011;37248;59.350;18.050;2023-04-09T00:55:57;1078.80;;;982.13;;
51184;SDS011;37248;59.350;18.050;2023-04-09T00:58:22;1097.43;;;996.37;;
51184;SDS011;37248;59.350;18.050;2023-04-09T01:00:48;1089.75;;;989.53;;
51184;SDS011;37248;59.350;18.050;2023-04-09T01:03:13;1078.17;;;983.47;;
51184;SDS011;37248;59.350;18.050;2023-04-09T01:08:40;1083.05;;;987.40;;
51184;SDS011;37248;59.350;18.050;2023-04-09T01:13:41;1088.23;;;991.30;;
51184;SDS011;37248;59.350;18.050;2023-04-09T01:16:11;1083.27;;;987.67;;
51184;SDS011;37248;59.350;18.050;2023-04-09T01:18:42;1087.28;;;992.20;;
51184;SDS011;37248;59.350;18.050;2023-04-09T01:21:12;1080.25;;;984.88;;
51184;SDS011;37248;59.350;18.050;2023-04-09T01:29:00;1087.32;;;991.65;;
51184;SDS011;37248;59.350;18.050;2023-04-09T01:31:31;1081.47;;;985.70;;
51184;SDS011;37248;59.350;18.050;2023-04-09T01:33:56;1069.72;;;975.85;;
51184;SDS011;37248;59.350;18.050;2023-04-09T01:36:23;1098.07;;;998.63;;
51184;SDS011;37248;59.350;18.050;2023-04-09T01:38:49;1206.40;;;999.90;;
51184;SDS011;37248;59.350;18.050;2023-04-09T01:41:17;1188.80;;;999.90;;
51184;SDS011;37248;59.350;18.050;2023-04-09T01:43:43;1188.97;;;999.90;;
51184;SDS011;37248;59.350;18.050;2023-04-09T01:46:09;1163.53;;;999.90;;
51184;SDS011;37248;59.350;18.050;2023-04-09T01:48:35;1175.23;;;999.90;;
51184;SDS011;37248;59.350;18.050;2023-04-09T01:51:00;1164.93;;;999.90;;
51184;SDS011;37248;59.350;18.050;2023-04-09T01:53:26;1162.50;;;999.90;;
51184;SDS011;37248;59.350;18.050;2023-04-09T01:55:53;1150.65;;;999.90;;
51184;SDS011;37248;59.350;18.050;2023-04-09T01:58:18;1138.10;;;999.90;;
51184;SDS011;37248;59.350;18.050;2023-04-09T02:00:44;1166.97;;;999.90;;
51184;SDS011;37248;59.350;18.050;2023-04-09T02:05:40;1163.63;;;999.90;;
51184;SDS011;37248;59.350;18.050;2023-04-09T02:08:09;1166.90;;;999.90;;
51184;SDS011;37248;59.350;18.050;2023-04-09T02:10:37;1152.07;;;999.90;;
51184;SDS011;37248;59.350;18.050;2023-04-09T02:13:03;1126.72;;;999.90;;
51184;SDS011;37248;59.350;18.050;2023-04-09T02:15:29;1157.38;;;999.90;;
51184;SDS011;37248;59.350;18.050;2023-04-09T02:17:55;1135.15;;;999.90;;
51184;SDS011;37248;59.350;18.050;2023-04-09T02:20:20;1126.53;;;999.90;;
51184;SDS011;37248;59.350;18.050;2023-04-09T02:22:46;1117.87;;;999.90;;
51184;SDS011;37248;59.350;18.050;2023-04-09T02:25:12;1098.73;;;999.73;;
51184;SDS011;37248;59.350;18.050;2023-04-09T02:27:37;1086.30;;;988.43;;
51184;SDS011;37248;59.350;18.050;2023-04-09T02:30:03;1084.77;;;987.07;;
51184;SDS011;37248;59.350;18.050;2023-04-09T02:32:28;1087.63;;;989.93;;
51184;SDS011;37248;59.350;18.050;2023-04-09T02:34:53;1078.30;;;981.90;;
51184;SDS011;37248;59.350;18.050;2023-04-09T02:37:19;1067.63;;;972.97;;
51184;SDS011;37248;59.350;18.050;2023-04-09T02:39:44;1081.00;;;984.80;;
51184;SDS011;37248;59.350;18.050;2023-04-09T02:42:09;1077.73;;;981.10;;
51184;SDS011;37248;59.350;18.050;2023-04-09T02:44:34;1048.60;;;956.50;;
51184;SDS011;37248;59.350;18.050;2023-04-09T02:47:00;1062.00;;;967.10;;
51184;SDS011;37248;59.350;18.050;2023-04-09T02:49:25;1088.43;;;992.07;;
51184;SDS011;37248;59.350;18.050;2023-04-09T02:51:50;1058.63;;;965.90;;
51184;SDS011;37248;59.350;18.050;2023-04-09T02:54:16;1074.40;;;978.30;;
51184;SDS011;37248;59.350;18.050;2023-04-09T02:56:41;1062.30;;;970.00;;
51184;SDS011;37248;59.350;18.050;2023-04-09T02:59:06;1080.73;;;984.87;;
51184;SDS011;37248;59.350;18.050;2023-04-09T03:01:31;1086.17;;;988.33;;
51184;SDS011;37248;59.350;18.050;2023-04-09T03:03:57;1097.63;;;998.53;;
51184;SDS011;37248;59.350;18.050;2023-04-09T03:06:22;1074.30;;;978.10;;
51184;SDS011;37248;59.350;18.050;2023-04-09T03:08:47;1075.83;;;981.07;;
51184;SDS011;37248;59.350;18.050;2023-04-09T03:11:12;1057.80;;;968.57;;
51184;SDS011;37248;59.350;18.050;2023-04-09T03:13:38;1067.53;;;977.87;;
51184;SDS011;37248;59.350;18.050;2023-04-09T03:16:03;1010.53;;;926.30;;
51184;SDS011;37248;59.350;18.050;2023-04-09T03:18:28;1002.07;;;919.20;;
51184;SDS011;37248;59.350;18.050;2023-04-09T03:20:54;1010.93;;;928.47;;
51184;SDS011;37248;59.350;18.050;2023-04-09T03:23:19;971.07;;;894.57;;
51184;SDS011;37248;59.350;18.050;2023-04-09T03:25:44;968.60;;;891.10;;
51184;SDS011;37248;59.350;18.050;2023-04-09T03:28:10;923.67;;;852.77;;
51184;SDS011;37248;59.350;18.050;2023-04-09T03:30:35;996.93;;;916.13;;
51184;SDS011;37248;59.350;18.050;2023-04-09T03:33:00;602.08;;;563.55;;
51184;SDS011;37248;59.350;18.050;2023-04-09T03:35:26;582.20;;;545.13;;
51184;SDS011;37248;59.350;18.050;2023-04-09T03:37:51;583.33;;;546.57;;
51184;SDS011;37248;59.350;18.050;2023-04-09T03:40:16;581.37;;;544.20;;
51184;SDS011;37248;59.350;18.050;2023-04-09T03:42:41;571.27;;;535.73;;
51184;SDS011;37248;59.350;18.050;2023-04-09T03:45:07;568.07;;;532.73;;
51184;SDS011;37248;59.350;18.050;2023-04-09T03:47:32;578.97;;;542.27;;
51184;SDS011;37248;59.350;18.050;2023-04-09T03:49:57;579.73;;;543.27;;
51184;SDS011;37248;59.350;18.050;2023-04-09T03:52:23;575.87;;;539.07;;
51184;SDS011;37248;59.350;18.050;2023-04-09T03:54:48;572.25;;;535.80;;
51184;SDS011;37248;59.350;18.050;2023-04-09T03:57:13;584.30;;;546.00;;
51184;SDS011;37248;59.350;18.050;2023-04-09T03:59:38;566.37;;;530.27;;
51184;SDS011;37248;59.350;18.050;2023-04-09T04:02:04;565.77;;;529.90;;
51184;SDS011;37248;59.350;18.050;2023-04-09T04:04:29;571.37;;;535.47;;
51184;SDS011;37248;59.350;18.050;2023-04-09T04:06:55;555.13;;;520.23;;
51184;SDS011;37248;59.350;18.050;2023-04-09T04:09:20;619.23;;;578.50;;
51184;SDS011;37248;59.350;18.050;2023-04-09T04:11:45;510.88;;;479.40;;
51184;SDS011;37248;59.350;18.050;2023-04-09T04:14:11;481.37;;;452.03;;
51184;SDS011;37248;59.350;18.050;2023-04-09T04:16:36;515.27;;;483.47;;
51184;SDS011;37248;59.350;18.050;2023-04-09T04:19:01;331.73;;;313.20;;
51184;SDS011;37248;59.350;18.050;2023-04-09T04:21:26;329.30;;;310.87;;
51184;SDS011;37248;59.350;18.050;2023-04-09T04:23:52;301.73;;;285.03;;
51184;SDS011;37248;59.350;18.050;2023-04-09T04:26:17;324.33;;;306.13;;
51184;SDS011;37248;59.350;18.050;2023-04-09T04:28:42;312.37;;;294.90;;
51184;SDS011;37248;59.350;18.050;2023-04-09T04:31:08;301.17;;;284.00;;
51184;SDS011;37248;59.350;18.050;2023-04-09T04:33:34;315.95;;;298.20;;
51184;SDS011;37248;59.350;18.050;2023-04-09T04:36:04;298.30;;;281.60;;
51184;SDS011;37248;59.350;18.050;2023-04-09T04:38:30;314.50;;;296.92;;
51184;SDS011;37248;59.350;18.050;2023-04-09T04:40:55;308.37;;;291.10;;
51184;SDS011;37248;59.350;18.050;2023-04-09T04:43:20;322.93;;;304.80;;
51184;SDS011;37248;59.350;18.050;2023-04-09T04:45:46;299.50;;;282.97;;
51184;SDS011;37248;59.350;18.050;2023-04-09T04:48:11;309.23;;;291.87;;
51184;SDS011;37248;59.350;18.050;2023-04-09T04:50:36;312.70;;;295.33;;
51184;SDS011;37248;59.350;18.050;2023-04-09T04:53:01;303.70;;;286.70;;
51184;SDS011;37248;59.350;18.050;2023-04-09T04:55:27;312.83;;;295.53;;
51184;SDS011;37248;59.350;18.050;2023-04-09T04:57:52;318.03;;;300.40;;
51184;SDS011;37248;59.350;18.050;2023-04-09T05:00:17;319.47;;;301.43;;
51184;SDS011;37248;59.350;18.050;2023-04-09T05:02:42;300.70;;;284.23;;
51184;SDS011;37248;59.350;18.050;2023-04-09T05:05:08;317.47;;;299.87;;
51184;SDS011;37248;59.350;18.050;2023-04-09T05:07:33;318.00;;;299.77;;
51184;SDS011;37248;59.350;18.050;2023-04-09T05:09:58;311.00;;;293.77;;
51184;SDS011;37248;59.350;18.050;2023-04-09T05:12:24;309.20;;;292.20;;
51184;SDS011;37248;59.350;18.050;2023-04-09T05:14:49;307.13;;;289.73;;
51184;SDS011;37248;59.350;18.050;2023-04-09T05:17:14;303.00;;;285.87;;
51184;SDS011;37248;59.350;18.050;2023-04-09T05:19:40;308.30;;;291.42;;
51184;SDS011;37248;59.350;18.050;2023-04-09T05:22:05;314.37;;;296.97;;
51184;SDS011;37248;59.350;18.050;2023-04-09T05:24:31;303.17;;;286.30;;
51184;SDS011;37248;59.350;18.050;2023-04-09T05:26:56;314.37;;;296.87;;
51184;SDS011;37248;59.350;18.050;2023-04-09T05:29:22;303.13;;;286.25;;
51184;SDS011;37248;59.350;18.050;2023-04-09T05:31:47;308.03;;;290.73;;
51184;SDS011;37248;59.350;18.050;2023-04-09T05:34:12;302.60;;;285.87;;
51184;SDS011;37248;59.350;18.050;2023-04-09T05:36:37;308.43;;;291.17;;
51184;SDS011;37248;59.350;18.050;2023-04-09T05:39:03;314.00;;;296.52;;
51184;SDS011;37248;59.350;18.050;2023-04-09T05:41:28;313.63;;;296.03;;
51184;SDS011;37248;59.350;18.050;2023-04-09T05:43:53;312.00;;;294.38;;
51184;SDS011;37248;59.350;18.050;2023-04-09T05:46:18;314.73;;;297.20;;
51184;SDS011;37248;59.350;18.050;2023-04-09T05:48:44;308.50;;;291.13;;
51184;SDS011;37248;59.350;18.050;2023-04-09T05:51:09;323.23;;;305.47;;
51184;SDS011;37248;59.350;18.050;2023-04-09T05:53:35;313.43;;;296.00;;
51184;SDS011;37248;59.350;18.050;2023-04-09T05:56:00;327.27;;;309.17;;
51184;SDS011;37248;59.350;18.050;2023-04-09T05:58:27;307.50;;;290.57;;
51184;SDS011;37248;59.350;18.050;2023-04-09T06:00:52;288.43;;;272.40;;
51184;SDS011;37248;59.350;18.050;2023-04-09T06:03:18;317.30;;;299.67;;
51184;SDS011;37248;59.350;18.050;2023-04-09T06:05:46;292.83;;;276.55;;
51184;SDS011;37248;59.350;18.050;2023-04-09T06:08:12;309.93;;;292.57;;
51184;SDS011;37248;59.350;18.050;2023-04-09T06:10:38;307.90;;;290.80;;
51184;SDS011;37248;59.350;18.050;2023-04-09T06:13:03;312.13;;;294.63;;
51184;SDS011;37248;59.350;18.050;2023-04-09T06:15:28;315.38;;;297.92;;
51184;SDS011;37248;59.350;18.050;2023-04-09T06:17:53;305.70;;;288.93;;
51184;SDS011;37248;59.350;18.050;2023-04-09T06:20:19;315.83;;;298.47;;
51184;SDS011;37248;59.350;18.050;2023-04-09T06:22:45;308.58;;;291.55;;
51184;SDS011;37248;59.350;18.050;2023-04-09T06:25:10;300.90;;;284.50;;
51184;SDS011;37248;59.350;18.050;2023-04-09T06:27:36;310.10;;;292.90;;
51184;SDS011;37248;59.350;18.050;2023-04-09T06:30:01;302.40;;;285.77;;
51184;SDS011;37248;59.350;18.050;2023-04-09T06:32:26;305.20;;;288.57;;
51184;SDS011;37248;59.350;18.050;2023-04-09T06:34:51;324.27;;;306.40;;
51184;SDS011;37248;59.350;18.050;2023-04-09T06:37:17;309.20;;;291.93;;
51184;SDS011;37248;59.350;18.050;2023-04-09T06:39:42;307.50;;;290.63;;
51184;SDS011;37248;59.350;18.050;2023-04-09T06:42:07;299.67;;;283.27;;
51184;SDS011;37248;59.350;18.050;2023-04-09T06:44:33;302.90;;;286.43;;
51184;SDS011;37248;59.350;18.050;2023-04-09T06:46:58;296.75;;;280.38;;
51184;SDS011;37248;59.350;18.050;2023-04-09T06:49:23;319.77;;;301.93;;
51184;SDS011;37248;59.350;18.050;2023-04-09T06:51:49;321.58;;;303.65;;
51184;SDS011;37248;59.350;18.050;2023-04-09T06:54:17;318.92;;;300.80;;
51184;SDS011;37248;59.350;18.050;2023-04-09T06:56:42;319.25;;;301.65;;
51184;SDS011;37248;59.350;18.050;2023-04-09T06:59:08;323.37;;;305.47;;
51184;SDS011;37248;59.350;18.050;2023-04-09T07:01:33;321.50;;;303.77;;
51184;SDS011;37248;59.350;18.050;2023-04-09T07:03:59;321.17;;;303.17;;
51184;SDS011;37248;59.350;18.050;2023-04-09T07:06:25;317.47;;;299.97;;
51184;SDS011;37248;59.350;18.050;2023-04-09T07:08:50;314.80;;;297.20;;
51184;SDS011;37248;59.350;18.050;2023-04-09T07:11:16;311.30;;;294.10;;
51184;SDS011;37248;59.350;18.050;2023-04-09T07:13:41;317.73;;;299.97;;
51184;SDS011;37248;59.350;18.050;2023-04-09T07:16:07;328.10;;;309.73;;
51184;SDS011;37248;59.350;18.050;2023-04-09T07:18:32;332.47;;;314.17;;
51184;SDS011;37248;59.350;18.050;2023-04-09T07:20:57;335.97;;;317.00;;
51184;SDS011;37248;59.350;18.050;2023-04-09T07:23:22;335.97;;;317.13;;
51184;SDS011;37248;59.350;18.050;2023-04-09T07:25:48;319.57;;;301.97;;
51184;SDS011;37248;59.350;18.050;2023-04-09T07:28:13;315.77;;;298.27;;
51184;SDS011;37248;59.350;18.050;2023-04-09T07:30:38;318.57;;;299.90;;
51184;SDS011;37248;59.350;18.050;2023-04-09T07:33:03;311.67;;;293.90;;
51184;SDS011;37248;59.350;18.050;2023-04-09T07:35:29;303.25;;;286.15;;
51184;SDS011;37248;59.350;18.050;2023-04-09T07:37:54;317.87;;;298.77;;
51184;SDS011;37248;59.350;18.050;2023-04-09T07:40:19;308.63;;;290.17;;
51184;SDS011;37248;59.350;18.050;2023-04-09T07:42:45;326.97;;;307.63;;
51184;SDS011;37248;59.350;18.050;2023-04-09T07:45:10;345.57;;;320.57;;
51184;SDS011;37248;59.350;18.050;2023-04-09T07:47:36;325.63;;;304.37;;
51184;SDS011;37248;59.350;18.050;2023-04-09T07:50:02;267.58;;;250.48;;
51184;SDS011;37248;59.350;18.050;2023-04-09T07:52:27;294.17;;;274.57;;
51184;SDS011;37248;59.350;18.050;2023-04-09T07:54:53;35.03;;;3.50;;
51184;SDS011;37248;59.350;18.050;2023-04-09T07:57:18;57.23;;;5.87;;
51184;SDS011;37248;59.350;18.050;2023-04-09T07:59:43;34.10;;;5.10;;
51184;SDS011;37248;59.350;18.050;2023-04-09T08:02:08;105.72;;;9.68;;
51184;SDS011;37248;59.350;18.050;2023-04-09T08:04:34;80.47;;;9.00;;
51184;SDS011;37248;59.350;18.050;2023-04-09T08:07:00;112.27;;;10.37;;
51184;SDS011;37248;59.350;18.050;2023-04-09T08:09:25;86.40;;;8.50;;
51184;SDS011;37248;59.350;18.050;2023-04-09T08:11:50;98.73;;;8.87;;
51184;SDS011;37248;59.350;18.050;2023-04-09T08:14:17;82.93;;;8.65;;
51184;SDS011;37248;59.350;18.050;2023-04-09T08:16:43;61.38;;;7.47;;
51184;SDS011;37248;59.350;18.050;2023-04-09T08:19:09;76.63;;;7.78;;
51184;SDS011;37248;59.350;18.050;2023-04-09T08:21:40;54.97;;;5.78;;
51184;SDS011;37248;59.350;18.050;2023-04-09T08:24:09;724.00;;;42.00;;
51184;SDS011;37248;59.350;18.050;2023-04-09T08:26:38;224.65;;;12.85;;
51184;SDS011;37248;59.350;18.050;2023-04-09T08:29:04;149.73;;;8.88;;
51184;SDS011;37248;59.350;18.050;2023-04-09T08:31:29;123.80;;;7.97;;
51184;SDS011;37248;59.350;18.050;2023-04-09T08:33:55;113.23;;;7.60;;
51184;SDS011;37248;59.350;18.050;2023-04-09T08:36:20;104.73;;;6.33;;
51184;SDS011;37248;59.350;18.050;2023-04-09T08:38:45;78.23;;;7.17;;
51184;SDS011;37248;59.350;18.050;2023-04-09T08:41:18;391.27;;;23.20;;
51184;SDS011;37248;59.350;18.050;2023-04-09T08:43:45;56.63;;;5.22;;
51184;SDS011;37248;59.350;18.050;2023-04-09T08:46:10;40.60;;;4.35;;
51184;SDS011;37248;59.350;18.050;2023-04-09T08:48:36;40.90;;;5.28;;
51184;SDS011;37248;59.350;18.050;2023-04-09T08:51:02;41.67;;;4.32;;
51184;SDS011;37248;59.350;18.050;2023-04-09T08:53:27;39.40;;;3.75;;
51184;SDS011;37248;59.350;18.050;2023-04-09T08:55:53;38.17;;;4.13;;
51184;SDS011;37248;59.350;18.050;2023-04-09T08:58:18;33.23;;;3.80;;
51184;SDS011;37248;59.350;18.050;2023-04-09T09:00:43;33.90;;;3.57;;
51184;SDS011;37248;59.350;18.050;2023-04-09T09:03:09;32.13;;;4.30;;
51184;SDS011;37248;59.350;18.050;2023-04-09T09:08:06;24.08;;;3.83;;
51184;SDS011;37248;59.350;18.050;2023-04-09T09:10:41;26.70;;;4.17;;
51184;SDS011;37248;59.350;18.050;2023-04-09T09:15:41;29.17;;;3.50;;
51184;SDS011;37248;59.350;18.050;2023-04-09T09:18:06;21.20;;;3.40;;
51184;SDS011;37248;59.350;18.050;2023-04-09T09:20:31;30.17;;;3.20;;
51184;SDS011;37248;59.350;18.050;2023-04-09T09:22:57;20.27;;;2.70;;
51184;SDS011;37248;59.350;18.050;2023-04-09T09:25:23;18.30;;;2.90;;
51184;SDS011;37248;59.350;18.050;2023-04-09T09:27:50;15.60;;;2.70;;
51184;SDS011;37248;59.350;18.050;2023-04-09T09:30:25;19.50;;;2.97;;
51184;SDS011;37248;59.350;18.050;2023-04-09T09:32:51;21.90;;;3.53;;
51184;SDS011;37248;59.350;18.050;2023-04-09T09:35:17;37.70;;;2.92;;
51184;SDS011;37248;59.350;18.050;2023-04-09T09:37:43;18.10;;;2.80;;
51184;SDS011;37248;59.350;18.050;2023-04-09T09:40:08;18.23;;;3.03;;
51184;SDS011;37248;59.350;18.050;2023-04-09T09:42:33;18.77;;;2.83;;
51184;SDS011;37248;59.350;18.050;2023-04-09T09:44:59;20.77;;;3.00;;
51184;SDS011;37248;59.350;18.050;2023-04-09T09:47:25;17.03;;;3.33;;
51184;SDS011;37248;59.350;18.050;2023-04-09T09:49:51;19.63;;;3.53;;
51184;SDS011;37248;59.350;18.050;2023-04-09T09:52:20;21.77;;;2.85;;
51184;SDS011;37248;59.350;18.050;2023-04-09T09:54:50;30.55;;;3.85;;
51184;SDS011;37248;59.350;18.050;2023-04-09T09:57:17;24.80;;;3.37;;
51184;SDS011;37248;59.350;18.050;2023-04-09T09:59:46;22.92;;;3.35;;
51184;SDS011;37248;59.350;18.050;2023-04-09T10:02:20;17.70;;;3.30;;
51184;SDS011;37248;59.350;18.050;2023-04-09T10:04:47;25.85;;;3.30;;
51184;SDS011;37248;59.350;18.050;2023-04-09T10:07:13;15.15;;;3.40;;
51184;SDS011;37248;59.350;18.050;2023-04-09T10:09:40;19.92;;;3.05;;
51184;SDS011;37248;59.350;18.050;2023-04-09T10:12:07;11.65;;;2.92;;
51184;SDS011;37248;59.350;18.050;2023-04-09T10:14:33;15.13;;;3.05;;
51184;SDS011;37248;59.350;18.050;2023-04-09T10:16:59;16.60;;;2.85;;
51184;SDS011;37248;59.350;18.050;2023-04-09T10:19:26;15.63;;;3.13;;
51184;SDS011;37248;59.350;18.050;2023-04-09T10:21:58;16.27;;;2.83;;
51184;SDS011;37248;59.350;18.050;2023-04-09T10:24:28;14.68;;;2.78;;
51184;SDS011;37248;59.350;18.050;2023-04-09T10:26:53;20.63;;;2.63;;
51184;SDS011;37248;59.350;18.050;2023-04-09T10:29:26;13.85;;;2.60;;
51184;SDS011;37248;59.350;18.050;2023-04-09T10:34:17;16.27;;;3.20;;
51184;SDS011;37248;59.350;18.050;2023-04-09T10:36:43;16.63;;;2.78;;
51184;SDS011;37248;59.350;18.050;2023-04-09T10:39:12;36.58;;;3.97;;
51184;SDS011;37248;59.350;18.050;2023-04-09T10:41:40;13.40;;;2.10;;
51184;SDS011;37248;59.350;18.050;2023-04-09T10:44:18;5.93;;;2.10;;
51184;SDS011;37248;59.350;18.050;2023-04-09T10:46:44;13.63;;;2.30;;
51184;SDS011;37248;59.350;18.050;2023-04-09T10:49:10;8.75;;;2.10;;
51184;SDS011;37248;59.350;18.050;2023-04-09T10:51:37;10.75;;;2.38;;
51184;SDS011;37248;59.350;18.050;2023-04-09T10:54:48;14.07;;;2.93;;
51184;SDS011;37248;59.350;18.050;2023-04-09T10:59:32;12.68;;;2.17;;
51184;SDS011;37248;59.350;18.050;2023-04-09T11:01:58;9.18;;;2.25;;
51184;SDS011;37248;59.350;18.050;2023-04-09T11:04:23;9.77;;;2.13;;
51184;SDS011;37248;59.350;18.050;2023-04-09T11:06:54;5.77;;;1.87;;
51184;SDS011;37248;59.350;18.050;2023-04-09T11:09:20;4.93;;;1.60;;
51184;SDS011;37248;59.350;18.050;2023-04-09T11:11:50;7.28;;;1.77;;
51184;SDS011;37248;59.350;18.050;2023-04-09T11:14:19;5.00;;;1.80;;
51184;SDS011;37248;59.350;18.050;2023-04-09T11:16:46;6.30;;;1.80;;
51184;SDS011;37248;59.350;18.050;2023-04-09T11:19:11;8.13;;;2.08;;
51184;SDS011;37248;59.350;18.050;2023-04-09T11:21:36;6.53;;;2.10;;
51184;SDS011;37248;59.350;18.050;2023-04-09T11:24:02;5.87;;;1.80;;
51184;SDS011;37248;59.350;18.050;2023-04-09T11:26:34;6.77;;;1.67;;
51184;SDS011;37248;59.350;18.050;2023-04-09T11:29:03;6.70;;;1.65;;
51184;SDS011;37248;59.350;18.050;2023-04-09T11:31:28;3.95;;;1.40;;
51184;SDS011;37248;59.350;18.050;2023-04-09T11:33:54;5.07;;;1.77;;
51184;SDS011;37248;59.350;18.050;2023-04-09T11:36:20;4.80;;;1.80;;
51184;SDS011;37248;59.350;18.050;2023-04-09T11:38:46;4.70;;;1.40;;
51184;SDS011;37248;59.350;18.050;2023-04-09T11:41:12;5.03;;;1.50;;
51184;SDS011;37248;59.350;18.050;2023-04-09T11:43:38;4.63;;;1.50;;
51184;SDS011;37248;59.350;18.050;2023-04-09T11:46:03;8.13;;;1.52;;
51184;SDS011;37248;59.350;18.050;2023-04-09T11:48:29;4.68;;;1.30;;
51184;SDS011;37248;59.350;18.050;2023-04-09T11:50:54;3.20;;;1.13;;
51184;SDS011;37248;59.350;18.050;2023-04-09T11:53:21;4.83;;;1.30;;
51184;SDS011;37248;59.350;18.050;2023-04-09T11:55:47;4.75;;;1.33;;
51184;SDS011;37248;59.350;18.050;2023-04-09T11:58:13;7.70;;;1.95;;
51184;SDS011;37248;59.350;18.050;2023-04-09T12:00:39;4.28;;;1.30;;
51184;SDS011;37248;59.350;18.050;2023-04-09T12:03:04;4.32;;;1.30;;
51184;SDS011;37248;59.350;18.050;2023-04-09T12:05:31;4.03;;;1.30;;
51184;SDS011;37248;59.350;18.050;2023-04-09T12:07:58;7.05;;;1.77;;
51184;SDS011;37248;59.350;18.050;2023-04-09T12:10:25;3.90;;;1.20;;
51184;SDS011;37248;59.350;18.050;2023-04-09T12:12:51;13.27;;;1.70;;
51184;SDS011;37248;59.350;18.050;2023-04-09T12:15:20;8.77;;;4.13;;
51184;SDS011;37248;59.350;18.050;2023-04-09T12:17:49;15.13;;;10.77;;
51184;SDS011;37248;59.350;18.050;2023-04-09T12:22:59;18.48;;;13.93;;
51184;SDS011;37248;59.350;18.050;2023-04-09T12:25:25;17.50;;;13.30;;
51184;SDS011;37248;59.350;18.050;2023-04-09T12:27:51;20.88;;;13.38;;
51184;SDS011;37248;59.350;18.050;2023-04-09T12:30:16;14.77;;;11.30;;
51184;SDS011;37248;59.350;18.050;2023-04-09T12:32:41;16.83;;;11.07;;
51184;SDS011;37248;59.350;18.050;2023-04-09T12:35:08;17.30;;;10.85;;
51184;SDS011;37248;59.350;18.050;2023-04-09T12:37:34;18.47;;;10.27;;
51184;SDS011;37248;59.350;18.050;2023-04-09T12:39:59;16.63;;;8.90;;
51184;SDS011;37248;59.350;18.050;2023-04-09T12:42:24;19.83;;;8.40;;
51184;SDS011;37248;59.350;18.050;2023-04-09T12:44:49;15.47;;;8.23;;
51184;SDS011;37248;59.350;18.050;2023-04-09T12:47:15;17.02;;;8.05;;
51184;SDS011;37248;59.350;18.050;2023-04-09T12:49:41;28.02;;;23.13;;
51184;SDS011;37248;59.350;18.050;2023-04-09T12:52:09;50.03;;;39.40;;
51184;SDS011;37248;59.350;18.050;2023-04-09T12:54:34;49.10;;;39.87;;
51184;SDS011;37248;59.350;18.050;2023-04-09T12:57:00;48.63;;;38.60;;
51184;SDS011;37248;59.350;18.050;2023-04-09T12:59:25;42.92;;;35.83;;
51184;SDS011;37248;59.350;18.050;2023-04-09T13:01:51;41.45;;;33.97;;
51184;SDS011;37248;59.350;18.050;2023-04-09T13:04:16;38.97;;;31.97;;
51184;SDS011;37248;59.350;18.050;2023-04-09T13:06:42;36.47;;;29.83;;
51184;SDS011;37248;59.350;18.050;2023-04-09T13:09:07;35.40;;;28.63;;
51184;SDS011;37248;59.350;18.050;2023-04-09T13:11:32;32.80;;;26.73;;
51184;SDS011;37248;59.350;18.050;2023-04-09T13:13:57;34.80;;;25.63;;
51184;SDS011;37248;59.350;18.050;2023-04-09T13:16:23;34.30;;;24.00;;
51184;SDS011;37248;59.350;18.050;2023-04-09T13:18:48;33.17;;;23.60;;
51184;SDS011;37248;59.350;18.050;2023-04-09T13:21:13;32.10;;;22.10;;
51184;SDS011;37248;59.350;18.050;2023-04-09T13:23:42;29.67;;;21.17;;
51184;SDS011;37248;59.350;18.050;2023-04-09T13:26:07;30.70;;;21.10;;
51184;SDS011;37248;59.350;18.050;2023-04-09T13:28:33;32.87;;;20.00;;
51184;SDS011;37248;59.350;18.050;2023-04-09T13:30:58;32.00;;;19.53;;
51184;SDS011;37248;59.350;18.050;2023-04-09T13:33:23;29.90;;;18.60;;
51184;SDS011;37248;59.350;18.050;2023-04-09T13:35:48;31.00;;;17.77;;
51184;SDS011;37248;59.350;18.050;2023-04-09T13:38:15;32.63;;;16.42;;
51184;SDS011;37248;59.350;18.050;2023-04-09T13:40:40;25.47;;;15.13;;
51184;SDS011;37248;59.350;18.050;2023-04-09T13:43:06;21.10;;;14.77;;
51184;SDS011;37248;59.350;18.050;2023-04-09T13:45:31;24.67;;;13.70;;
51184;SDS011;37248;59.350;18.050;2023-04-09T13:47:56;23.20;;;12.57;;
51184;SDS011;37248;59.350;18.050;2023-04-09T13:50:22;28.15;;;12.52;;
51184;SDS011;37248;59.350;18.050;2023-04-09T13:52:47;18.90;;;10.73;;
51184;SDS011;37248;59.350;18.050;2023-04-09T13:55:12;22.13;;;9.77;;
51184;SDS011;37248;59.350;18.050;2023-04-09T13:57:38;22.77;;;9.53;;
51184;SDS011;37248;59.350;18.050;2023-04-09T14:00:03;20.70;;;9.90;;
51184;SDS011;37248;59.350;18.050;2023-04-09T14:02:29;20.58;;;8.65;;
51184;SDS011;37248;59.350;18.050;2023-04-09T14:04:54;22.73;;;8.90;;
51184;SDS011;37248;59.350;18.050;2023-04-09T14:07:19;20.77;;;8.47;;
51184;SDS011;37248;59.350;18.050;2023-04-09T14:09:45;17.38;;;7.95;;
51184;SDS011;37248;59.350;18.050;2023-04-09T14:12:10;18.50;;;8.00;;
51184;SDS011;37248;59.350;18.050;2023-04-09T14:14:35;21.07;;;8.63;;